Time;durP1;ratioP1;P1;durP2;ratioP2;P2;SDS_P1;SDS_P2;PMS_P1;PMS_P2;Temp;Humidity;BMP_temperature;BMP_pressure;BME280_temperature;BME280_humidity;BME280_pressure;Samples;Min_cycle;Max_cycle;Signal;HPM_P1;HPM_P2
2021/12/19 00:02:08;;;;;;;21.38;9.25;;;;;;;;;;5087684;28;20024;-66
2021/12/19 00:10:03;;;;;;;19.60;9.02;;;;;;;;;;5088925;28;20081;-73
2021/12/19 00:12:29;;;;;;;18.20;8.05;;;;;;;;;;5069795;28;20020;-67
2021/12/19 00:14:55;;;;;;;19.80;9.15;;;;;;;;;;5088775;28;20042;-66
2021/12/19 00:17:21;;;;;;;19.50;8.50;;;;;;;;;;5070195;28;20027;-65
2021/12/19 00:19:47;;;;;;;19.95;9.35;;;;;;;;;;5069730;28;20035;-67
2021/12/19 00:22:13;;;;;;;19.83;8.93;;;;;;;;;;5087619;28;20024;-65
2021/12/19 00:24:39;;;;;;;21.75;9.20;;;;;;;;;;5069933;28;20101;-66
2021/12/19 00:27:05;;;;;;;19.90;9.30;;;;;;;;;;5087994;28;20077;-66
2021/12/19 00:29:31;;;;;;;20.08;9.18;;;;;;;;;;5069877;28;20024;-65
2021/12/19 00:31:57;;;;;;;20.85;11.18;;;;;;;;;;5055663;28;20126;-66
2021/12/19 00:34:23;;;;;;;19.38;8.95;;;;;;;;;;5049547;28;20071;-66
2021/12/19 00:36:49;;;;;;;24.15;10.75;;;;;;;;;;5049461;28;20035;-67
2021/12/19 00:39:15;;;;;;;20.95;9.45;;;;;;;;;;5049666;28;20396;-66
2021/12/19 00:41:42;;;;;;;21.65;9.55;;;;;;;;;;5066902;28;20032;-66
2021/12/19 00:44:12;;;;;;;23.10;11.20;;;;;;;;;;5048835;28;20442;-67
2021/12/19 00:46:53;;;;;;;21.95;10.75;;;;;;;;;;5067203;28;20043;-67
2021/12/19 00:49:22;;;;;;;22.63;9.40;;;;;;;;;;5075456;28;20706;-67
2021/12/19 00:51:49;;;;;;;20.95;10.05;;;;;;;;;;5090158;28;20054;-68
2021/12/19 00:54:15;;;;;;;22.92;10.32;;;;;;;;;;5072700;28;20059;-68
2021/12/19 00:56:42;;;;;;;21.13;9.50;;;;;;;;;;5073030;28;20063;-67
2021/12/19 00:59:09;;;;;;;21.77;9.13;;;;;;;;;;5072645;28;20024;-66
2021/12/19 01:01:35;;;;;;;20.58;8.70;;;;;;;;;;5089788;28;20028;-64
2021/12/19 01:04:02;;;;;;;17.73;7.90;;;;;;;;;;5072969;28;20031;-67
2021/12/19 01:06:29;;;;;;;17.58;7.60;;;;;;;;;;5073119;28;20020;-68
2021/12/19 01:08:55;;;;;;;17.92;7.00;;;;;;;;;;5072975;28;20027;-68
2021/12/19 01:11:21;;;;;;;17.63;6.82;;;;;;;;;;5090898;28;20479;-68
2021/12/19 01:13:47;;;;;;;17.67;7.60;;;;;;;;;;5090300;28;20019;-68
2021/12/19 01:16:15;;;;;;;17.30;7.20;;;;;;;;;;5090823;28;20028;-68
2021/12/19 01:18:42;;;;;;;16.90;7.03;;;;;;;;;;5073031;28;20545;-68
2021/12/19 01:21:08;;;;;;;16.92;7.18;;;;;;;;;;5072791;28;20028;-68
2021/12/19 01:23:34;;;;;;;18.63;7.40;;;;;;;;;;5072041;28;20115;-67
2021/12/19 01:26:00;;;;;;;17.58;7.75;;;;;;;;;;5090763;28;20397;-68
2021/12/19 01:28:26;;;;;;;15.50;6.32;;;;;;;;;;5072780;28;20020;-68
2021/12/19 01:30:52;;;;;;;16.27;6.60;;;;;;;;;;5072828;28;20421;-68
2021/12/19 01:33:18;;;;;;;15.95;6.78;;;;;;;;;;5090166;28;20023;-68
2021/12/19 01:35:47;;;;;;;17.63;6.72;;;;;;;;;;5072585;28;20070;-68
2021/12/19 01:38:12;;;;;;;16.77;6.78;;;;;;;;;;5072242;28;20028;-69
2021/12/19 01:40:39;;;;;;;15.98;6.47;;;;;;;;;;5072212;28;20028;-67
2021/12/19 01:43:05;;;;;;;16.38;6.60;;;;;;;;;;5072054;28;20059;-66
2021/12/19 01:45:35;;;;;;;16.38;6.75;;;;;;;;;;5072530;28;20021;-68
2021/12/19 01:48:02;;;;;;;15.93;6.63;;;;;;;;;;5072561;28;20165;-67
2021/12/19 01:50:29;;;;;;;18.45;6.88;;;;;;;;;;5072692;28;20043;-67
2021/12/19 01:52:56;;;;;;;17.08;6.57;;;;;;;;;;5071970;28;20110;-66
2021/12/19 01:55:22;;;;;;;16.40;5.80;;;;;;;;;;5072492;28;20427;-68
2021/12/19 01:57:48;;;;;;;15.40;6.32;;;;;;;;;;5072423;28;20034;-66
2021/12/19 02:00:18;;;;;;;14.68;4.93;;;;;;;;;;5090564;28;20494;-68
2021/12/19 02:02:44;;;;;;;15.68;5.90;;;;;;;;;;5089523;28;20024;-69
2021/12/19 02:05:10;;;;;;;13.57;4.93;;;;;;;;;;5072434;28;20024;-66
2021/12/19 02:07:37;;;;;;;14.35;4.95;;;;;;;;;;5072394;28;20082;-68
2021/12/19 02:10:03;;;;;;;13.05;5.15;;;;;;;;;;5090389;28;20061;-67
2021/12/19 02:12:29;;;;;;;12.60;4.90;;;;;;;;;;5092276;28;20568;-68
2021/12/19 02:14:55;;;;;;;14.43;5.07;;;;;;;;;;5094000;28;20059;-67
2021/12/19 02:17:21;;;;;;;12.15;5.00;;;;;;;;;;5094429;28;20466;-68
2021/12/19 02:19:53;;;;;;;12.45;4.57;;;;;;;;;;5093888;28;20104;-68
2021/12/19 02:22:18;;;;;;;13.63;4.97;;;;;;;;;;5074859;28;20096;-68
2021/12/19 02:24:44;;;;;;;14.25;4.90;;;;;;;;;;5075359;28;20499;-68
2021/12/19 02:27:11;;;;;;;13.82;5.20;;;;;;;;;;5093779;28;20028;-69
2021/12/19 02:29:37;;;;;;;13.30;4.68;;;;;;;;;;5075678;28;20027;-68
2021/12/19 02:32:05;;;;;;;13.60;5.70;;;;;;;;;;5092882;28;20024;-67
2021/12/19 02:34:37;;;;;;;15.52;5.43;;;;;;;;;;5093721;28;20020;-68
2021/12/19 02:37:20;;;;;;;12.98;4.88;;;;;;;;;;5093656;28;20027;-67
2021/12/19 02:40:08;;;;;;;14.65;5.60;;;;;;;;;;5093741;28;20031;-67
2021/12/19 02:48:11;;;;;;;15.45;5.18;;;;;;;;;;5093722;28;20027;-68
2021/12/19 02:50:44;;;;;;;14.40;4.93;;;;;;;;;;5093271;28;20016;-68
2021/12/19 02:53:10;;;;;;;14.23;5.20;;;;;;;;;;5092557;28;20059;-69
2021/12/19 02:55:36;;;;;;;15.98;6.03;;;;;;;;;;5075227;28;20037;-67
2021/12/19 02:58:02;;;;;;;13.30;4.93;;;;;;;;;;5093177;28;20365;-67
2021/12/19 03:00:28;;;;;;;15.35;7.10;;;;;;;;;;5075331;28;20077;-68
2021/12/19 03:02:54;;;;;;;18.02;5.88;;;;;;;;;;5092354;28;20468;-68
2021/12/19 03:05:20;;;;;;;15.90;5.45;;;;;;;;;;5075093;28;20476;-68
2021/12/19 03:07:49;;;;;;;13.98;5.45;;;;;;;;;;5074809;28;20053;-69
2021/12/19 03:17:56;;;;;;;13.90;5.28;;;;;;;;;;5092389;28;20039;-69
2021/12/19 03:18:59;;;;;;;15.30;5.30;;;;;;;;;;5030295;28;20022;-68
2021/12/19 03:21:25;;;;;;;13.95;5.13;;;;;;;;;;5013756;28;20030;-67
2021/12/19 03:23:52;;;;;;;14.10;4.85;;;;;;;;;;5040648;28;20036;-67
2021/12/19 03:26:18;;;;;;;15.10;4.82;;;;;;;;;;5092858;28;20507;-67
2021/12/19 03:28:44;;;;;;;14.30;5.47;;;;;;;;;;5074741;28;20024;-69
2021/12/19 03:31:10;;;;;;;15.15;5.72;;;;;;;;;;5074148;28;20035;-67
2021/12/19 03:33:38;;;;;;;15.65;5.97;;;;;;;;;;5092042;28;20532;-69
2021/12/19 03:36:06;;;;;;;14.48;5.65;;;;;;;;;;5074359;28;20107;-67
2021/12/19 03:38:37;;;;;;;16.33;5.70;;;;;;;;;;5074378;28;20028;-68
2021/12/19 03:41:17;;;;;;;16.30;5.88;;;;;;;;;;5114633;22;20028;-67
2021/12/19 03:43:43;;;;;;;16.60;6.80;;;;;;;;;;5052145;28;20041;-71
2021/12/19 03:46:09;;;;;;;16.70;6.30;;;;;;;;;;5052043;28;20021;-70
2021/12/19 03:48:35;;;;;;;16.30;6.35;;;;;;;;;;5052226;28;20025;-70
2021/12/19 03:51:01;;;;;;;17.60;6.50;;;;;;;;;;5052057;28;20119;-70
2021/12/19 03:53:27;;;;;;;17.13;6.18;;;;;;;;;;5052578;28;20189;-70
2021/12/19 03:55:53;;;;;;;16.80;5.82;;;;;;;;;;5053257;28;20059;-70
2021/12/19 03:58:20;;;;;;;16.20;5.97;;;;;;;;;;5035481;28;20044;-70
2021/12/19 04:00:47;;;;;;;15.75;6.22;;;;;;;;;;5035500;28;20017;-69
2021/12/19 04:03:21;;;;;;;16.58;5.88;;;;;;;;;;5034521;28;20035;-70
2021/12/19 04:05:51;;;;;;;17.30;7.00;;;;;;;;;;5053028;28;20021;-69
2021/12/19 04:08:18;;;;;;;16.52;6.82;;;;;;;;;;5053026;28;20025;-70
2021/12/19 04:10:46;;;;;;;18.00;6.80;;;;;;;;;;5035195;28;20072;-69
2021/12/19 04:13:12;;;;;;;16.65;6.25;;;;;;;;;;5051993;28;20171;-70
2021/12/19 04:15:38;;;;;;;16.23;6.22;;;;;;;;;;5035493;28;20033;-69
2021/12/19 04:18:04;;;;;;;16.33;6.63;;;;;;;;;;5034894;28;20036;-69
2021/12/19 04:20:30;;;;;;;17.35;6.50;;;;;;;;;;5034720;28;20231;-71
2021/12/19 04:22:56;;;;;;;17.00;6.68;;;;;;;;;;5051751;28;20032;-69
2021/12/19 04:25:22;;;;;;;15.77;6.32;;;;;;;;;;5052717;28;20612;-70
2021/12/19 04:27:49;;;;;;;16.25;6.43;;;;;;;;;;5052630;28;20024;-69
2021/12/19 04:30:24;;;;;;;17.77;6.10;;;;;;;;;;5034683;28;20047;-70
2021/12/19 04:33:26;;;;;;;15.90;6.93;;;;;;;;;;5051893;28;20537;-70
2021/12/19 04:35:45;;;;;;;16.52;6.28;;;;;;;;;;5049876;28;20411;-70
2021/12/19 04:41:48;;;;;;;17.45;6.57;;;;;;;;;;5052244;28;20561;-69
2021/12/19 04:57:41;;;;;;;16.60;6.07;;;;;;;;;;5032728;28;20036;-70
2021/12/19 05:00:12;;;;;;;16.50;6.60;;;;;;;;;;5052425;28;20029;-70
2021/12/19 05:02:46;;;;;;;17.60;6.85;;;;;;;;;;5051355;28;20431;-72
2021/12/19 05:15:55;;;;;;;14.85;5.65;;;;;;;;;;5052527;28;20550;-70
2021/12/19 05:18:25;;;;;;;14.82;6.18;;;;;;;;;;5034269;28;20033;-69
2021/12/19 05:21:05;;;;;;;19.02;6.47;;;;;;;;;;5052108;28;20021;-70
2021/12/19 05:25:57;;;;;;;14.95;5.60;;;;;;;;;;5052704;28;20021;-69
2021/12/19 05:28:23;;;;;;;16.50;5.90;;;;;;;;;;5052172;28;20033;-70
2021/12/19 05:30:49;;;;;;;22.55;10.77;;;;;;;;;;5034437;28;20461;-70
2021/12/19 05:33:16;;;;;;;15.27;5.93;;;;;;;;;;5051292;28;20032;-70
2021/12/19 05:46:54;;;;;;;;;;;;;;;;;;5031108;28;20021;-69
2021/12/19 05:49:20;;;;;;;14.05;5.93;;;;;;;;;;5037717;28;20008;-70
2021/12/19 05:51:46;;;;;;;14.48;5.30;;;;;;;;;;5036862;28;20025;-69
2021/12/19 05:54:12;;;;;;;14.07;5.60;;;;;;;;;;5055765;28;20431;-70
2021/12/19 05:56:39;;;;;;;12.32;4.93;;;;;;;;;;5037845;28;20051;-70
2021/12/19 05:59:06;;;;;;;13.98;5.00;;;;;;;;;;5055515;28;20025;-70
2021/12/19 06:01:32;;;;;;;14.57;5.57;;;;;;;;;;5055325;28;20398;-69
2021/12/19 06:03:58;;;;;;;16.80;5.53;;;;;;;;;;5036588;28;20028;-70
2021/12/19 06:06:26;;;;;;;14.68;5.50;;;;;;;;;;5037326;28;20020;-70
2021/12/19 06:08:52;;;;;;;15.10;5.47;;;;;;;;;;5037300;28;20074;-70
2021/12/19 06:11:18;;;;;;;14.73;5.68;;;;;;;;;;5055179;28;20356;-70
2021/12/19 06:13:44;;;;;;;14.75;5.63;;;;;;;;;;5036832;28;20087;-70
2021/12/19 06:16:10;;;;;;;15.63;6.32;;;;;;;;;;5055078;28;20032;-70
2021/12/19 06:18:36;;;;;;;13.65;5.70;;;;;;;;;;5055116;28;20051;-69
2021/12/19 06:21:02;;;;;;;14.35;5.90;;;;;;;;;;5055086;28;20043;-70
2021/12/19 06:23:29;;;;;;;13.10;5.72;;;;;;;;;;5036493;28;20554;-69
2021/12/19 06:25:55;;;;;;;14.15;5.68;;;;;;;;;;5054966;28;20028;-69
2021/12/19 06:28:21;;;;;;;15.55;5.70;;;;;;;;;;5037156;28;20472;-70
2021/12/19 06:30:47;;;;;;;15.13;5.75;;;;;;;;;;5054821;28;20059;-70
2021/12/19 06:33:13;;;;;;;13.52;5.72;;;;;;;;;;5053977;28;20025;-70
2021/12/19 06:35:39;;;;;;;15.20;5.88;;;;;;;;;;5036839;28;20047;-70
2021/12/19 06:38:06;;;;;;;15.50;6.43;;;;;;;;;;5036863;28;20086;-69
2021/12/19 06:40:33;;;;;;;14.85;6.40;;;;;;;;;;5054838;28;20124;-70
2021/12/19 06:42:59;;;;;;;14.68;6.18;;;;;;;;;;5035952;28;20033;-70
2021/12/19 06:45:25;;;;;;;14.60;5.97;;;;;;;;;;5053042;28;20028;-69
2021/12/19 06:47:51;;;;;;;14.82;6.38;;;;;;;;;;5047281;28;20021;-69
2021/12/19 06:50:18;;;;;;;14.95;6.30;;;;;;;;;;5036950;28;20060;-69
2021/12/19 06:52:45;;;;;;;14.45;5.80;;;;;;;;;;5035828;28;20465;-69
2021/12/19 06:55:12;;;;;;;14.32;5.90;;;;;;;;;;5042713;28;20036;-70
2021/12/19 06:57:38;;;;;;;15.00;6.25;;;;;;;;;;5034299;28;20029;-69
2021/12/19 07:00:06;;;;;;;15.38;6.30;;;;;;;;;;5033092;28;20398;-71
2021/12/19 07:02:33;;;;;;;16.45;6.72;;;;;;;;;;5035142;28;20017;-69
2021/12/19 07:04:59;;;;;;;15.75;6.35;;;;;;;;;;5036256;28;20112;-70
2021/12/19 07:07:25;;;;;;;15.15;6.15;;;;;;;;;;5036198;28;20071;-69
2021/12/19 07:09:51;;;;;;;14.10;6.05;;;;;;;;;;5054125;28;20029;-69
2021/12/19 07:12:18;;;;;;;15.45;6.43;;;;;;;;;;5053292;28;20531;-70
2021/12/19 07:14:44;;;;;;;14.13;6.22;;;;;;;;;;5054074;28;20025;-69
2021/12/19 07:17:10;;;;;;;15.02;6.45;;;;;;;;;;5036138;28;20056;-70
2021/12/19 07:19:36;;;;;;;14.43;6.60;;;;;;;;;;5034266;28;20378;-69
2021/12/19 07:22:02;;;;;;;14.75;7.05;;;;;;;;;;5031981;28;20099;-71
2021/12/19 07:24:28;;;;;;;15.98;6.90;;;;;;;;;;5033830;28;20061;-70
2021/12/19 07:26:54;;;;;;;14.65;6.68;;;;;;;;;;5033930;28;20049;-71
2021/12/19 07:29:20;;;;;;;14.63;6.82;;;;;;;;;;5032668;28;20045;-71
2021/12/19 07:31:46;;;;;;;14.90;6.47;;;;;;;;;;5031758;28;20033;-70
2021/12/19 07:34:12;;;;;;;14.05;5.90;;;;;;;;;;5033709;28;20540;-69
2021/12/19 07:36:42;;;;;;;13.95;6.03;;;;;;;;;;5033713;28;20025;-70
2021/12/19 07:39:21;;;;;;;17.42;6.57;;;;;;;;;;5033587;28;20017;-75
2021/12/19 07:41:47;;;;;;;14.45;6.32;;;;;;;;;;5032916;28;20064;-69
2021/12/19 07:44:13;;;;;;;15.65;6.75;;;;;;;;;;5032281;28;20474;-70
2021/12/19 07:46:39;;;;;;;14.48;6.18;;;;;;;;;;5036672;28;20055;-69
2021/12/19 07:49:05;;;;;;;17.10;6.38;;;;;;;;;;5053415;28;20017;-70
2021/12/19 07:51:31;;;;;;;14.52;6.90;;;;;;;;;;5051829;28;20584;-69
2021/12/19 07:53:57;;;;;;;15.13;7.00;;;;;;;;;;5051623;28;20025;-70
2021/12/19 07:56:23;;;;;;;15.52;6.88;;;;;;;;;;5053363;28;20029;-70
2021/12/19 07:58:49;;;;;;;15.48;6.28;;;;;;;;;;5051795;28;20443;-69
2021/12/19 08:01:15;;;;;;;15.63;7.07;;;;;;;;;;5052832;28;20090;-70
2021/12/19 08:03:41;;;;;;;14.82;6.82;;;;;;;;;;5052161;28;20025;-70
2021/12/19 08:06:06;;;;;;;13.60;6.28;;;;;;;;;;5052857;28;20512;-70
2021/12/19 08:08:33;;;;;;;14.18;5.85;;;;;;;;;;5052774;28;20025;-70
2021/12/19 08:13:44;;;;;;;13.00;5.53;;;;;;;;;;5052487;28;20559;-70
2021/12/19 08:16:10;;;;;;;13.90;5.22;;;;;;;;;;5052912;28;20072;-69
2021/12/19 08:18:36;;;;;;;13.77;5.40;;;;;;;;;;5052887;28;20397;-70
2021/12/19 08:21:03;;;;;;;13.75;5.20;;;;;;;;;;5051332;28;20028;-70
2021/12/19 08:23:29;;;;;;;12.75;5.28;;;;;;;;;;5052022;28;20032;-71
2021/12/19 08:25:55;;;;;;;11.18;4.90;;;;;;;;;;5034833;28;20389;-70
2021/12/19 08:28:21;;;;;;;12.30;5.00;;;;;;;;;;5052626;28;20025;-70
2021/12/19 08:30:47;;;;;;;10.55;5.07;;;;;;;;;;5052647;28;20045;-70
2021/12/19 08:33:13;;;;;;;12.15;5.20;;;;;;;;;;5051811;28;20615;-70
2021/12/19 08:35:39;;;;;;;11.93;5.15;;;;;;;;;;5035038;28;20096;-70
2021/12/19 08:38:05;;;;;;;12.02;5.25;;;;;;;;;;5052895;28;20101;-70
2021/12/19 08:40:32;;;;;;;13.10;5.60;;;;;;;;;;5034855;28;20021;-70
2021/12/19 08:42:58;;;;;;;12.75;5.57;;;;;;;;;;5051473;28;20037;-70
2021/12/19 08:45:24;;;;;;;11.77;5.47;;;;;;;;;;5052437;28;20055;-71
2021/12/19 08:47:51;;;;;;;11.70;5.40;;;;;;;;;;5034287;28;20538;-70
2021/12/19 08:50:18;;;;;;;12.07;5.53;;;;;;;;;;5050985;28;20029;-72
2021/12/19 08:52:45;;;;;;;11.77;5.57;;;;;;;;;;5050172;28;20021;-71
2021/12/19 08:55:11;;;;;;;12.15;5.90;;;;;;;;;;5052371;28;20082;-71
2021/12/19 08:57:37;;;;;;;11.25;5.70;;;;;;;;;;5052058;28;20083;-69
2021/12/19 09:00:08;;;;;;;11.10;5.80;;;;;;;;;;5050967;28;20021;-71
2021/12/19 09:02:34;;;;;;;12.23;5.50;;;;;;;;;;5051716;28;20017;-72
2021/12/19 09:05:00;;;;;;;12.00;5.15;;;;;;;;;;5050831;28;20120;-67
2021/12/19 09:07:26;;;;;;;11.60;5.10;;;;;;;;;;5051904;28;20056;-67
2021/12/19 09:09:52;;;;;;;12.13;4.93;;;;;;;;;;5050805;28;20017;-68
2021/12/19 09:12:18;;;;;;;10.23;4.80;;;;;;;;;;5051144;28;20082;-67
2021/12/19 09:14:44;;;;;;;11.13;4.80;;;;;;;;;;5050519;28;20388;-67
2021/12/19 09:17:10;;;;;;;10.00;4.30;;;;;;;;;;5050847;28;20036;-66
2021/12/19 09:19:37;;;;;;;10.82;4.53;;;;;;;;;;5050618;28;20029;-66
2021/12/19 09:22:03;;;;;;;10.25;4.35;;;;;;;;;;5053254;28;20029;-67
2021/12/19 09:24:29;;;;;;;11.32;4.55;;;;;;;;;;5055806;28;20036;-67
2021/12/19 09:26:55;;;;;;;11.27;4.30;;;;;;;;;;5055887;28;20021;-68
2021/12/19 09:29:21;;;;;;;12.00;4.28;;;;;;;;;;5056038;28;20389;-68
2021/12/19 09:31:47;;;;;;;11.45;4.43;;;;;;;;;;5055001;28;20021;-65
2021/12/19 09:34:13;;;;;;;11.75;4.63;;;;;;;;;;5054242;28;20455;-66
2021/12/19 09:36:39;;;;;;;11.07;4.70;;;;;;;;;;5055841;28;20025;-67
2021/12/19 09:39:05;;;;;;;11.07;4.47;;;;;;;;;;5054570;28;20092;-68
2021/12/19 09:41:34;;;;;;;13.65;4.97;;;;;;;;;;5056163;28;20072;-66
2021/12/19 09:44:05;;;;;;;10.65;4.72;;;;;;;;;;5056155;28;20616;-67
2021/12/19 09:46:32;;;;;;;10.60;4.57;;;;;;;;;;5055081;28;20032;-70
2021/12/19 09:48:58;;;;;;;10.48;4.80;;;;;;;;;;5054997;28;20059;-69
2021/12/19 09:51:24;;;;;;;11.18;4.80;;;;;;;;;;5056308;28;20021;-69
2021/12/19 09:53:51;;;;;;;12.93;4.93;;;;;;;;;;5054112;28;20021;-70
2021/12/19 09:56:17;;;;;;;9.48;4.63;;;;;;;;;;5056103;28;20025;-70
2021/12/19 09:58:43;;;;;;;9.57;4.57;;;;;;;;;;5056002;28;20616;-70
2021/12/19 10:01:10;;;;;;;11.57;4.95;;;;;;;;;;5055605;28;20135;-67
2021/12/19 10:03:37;;;;;;;11.52;5.18;;;;;;;;;;5053474;28;20469;-71
2021/12/19 10:06:23;;;;;;;12.32;5.25;;;;;;;;;;5054828;28;20029;-69
2021/12/19 10:09:07;;;;;;;12.52;5.05;;;;;;;;;;5055317;28;20567;-70
2021/12/19 10:14:27;;;;;;;10.88;4.85;;;;;;;;;;5055804;28;20037;-70
2021/12/19 10:16:53;;;;;;;14.13;6.53;;;;;;;;;;5054239;28;20397;-70
2021/12/19 10:19:19;;;;;;;12.52;5.70;;;;;;;;;;5053905;28;20025;-68
2021/12/19 10:21:46;;;;;;;13.32;5.93;;;;;;;;;;5053449;28;20119;-69
2021/12/19 10:24:31;;;;;;;14.80;6.30;;;;;;;;;;5053959;28;20070;-70
2021/12/19 10:26:58;;;;;;;13.15;5.72;;;;;;;;;;5054063;28;20025;-70
2021/12/19 10:29:41;;;;;;;14.13;5.82;;;;;;;;;;5055280;28;20025;-70
2021/12/19 10:32:07;;;;;;;16.83;6.90;;;;;;;;;;5052591;28;20451;-71
2021/12/19 10:34:33;;;;;;;16.13;6.68;;;;;;;;;;5054154;28;20035;-70
2021/12/19 10:36:59;;;;;;;16.55;5.63;;;;;;;;;;5056077;28;20033;-71
2021/12/19 10:39:34;;;;;;;15.77;6.38;;;;;;;;;;5056432;28;20021;-71
2021/12/19 10:42:01;;;;;;;15.50;6.20;;;;;;;;;;5054933;28;20441;-65
2021/12/19 10:47:20;;;;;;;16.55;5.82;;;;;;;;;;5045458;28;20112;-66
2021/12/19 10:49:46;;;;;;;16.00;6.70;;;;;;;;;;5047138;28;20477;-63
2021/12/19 10:52:12;;;;;;;18.92;6.82;;;;;;;;;;5043295;28;20389;-66
2021/12/19 10:54:56;;;;;;;15.40;6.10;;;;;;;;;;5042376;28;20025;-66
2021/12/19 10:57:30;;;;;;;15.90;5.93;;;;;;;;;;5041700;28;20025;-66
2021/12/19 10:59:56;;;;;;;16.92;6.55;;;;;;;;;;5049339;28;20033;-65
2021/12/19 11:02:34;;;;;;;16.25;6.63;;;;;;;;;;5035540;28;20045;-65
2021/12/19 11:05:00;;;;;;;16.63;6.82;;;;;;;;;;5036043;28;20021;-66
2021/12/19 11:07:26;;;;;;;16.90;7.05;;;;;;;;;;5043941;28;20028;-63
2021/12/19 11:09:52;;;;;;;16.10;7.35;;;;;;;;;;5040838;28;20017;-66
2021/12/19 11:12:18;;;;;;;17.15;7.00;;;;;;;;;;5024315;28;20032;-67
2021/12/19 11:14:47;;;;;;;16.77;6.60;;;;;;;;;;5041000;28;20027;-63
2021/12/19 11:17:15;;;;;;;16.92;7.22;;;;;;;;;;5041697;28;20021;-63
2021/12/19 11:19:42;;;;;;;22.67;8.85;;;;;;;;;;5032549;28;20136;-63
2021/12/19 11:22:08;;;;;;;17.58;6.80;;;;;;;;;;5031768;28;20025;-65
2021/12/19 11:24:34;;;;;;;18.48;7.20;;;;;;;;;;5032387;28;20072;-66
2021/12/19 11:27:02;;;;;;;18.20;7.10;;;;;;;;;;5032272;28;20021;-65
2021/12/19 11:29:29;;;;;;;18.35;6.60;;;;;;;;;;5033528;28;20505;-66
2021/12/19 11:31:57;;;;;;;18.00;6.70;;;;;;;;;;5032603;28;20044;-66
2021/12/19 11:34:25;;;;;;;17.33;6.88;;;;;;;;;;5033223;28;20021;-67
2021/12/19 11:37:02;;;;;;;14.73;6.27;;;;;;;;;;5031790;28;20065;-67
2021/12/19 11:39:30;;;;;;;22.08;7.45;;;;;;;;;;5033682;28;20029;-67
2021/12/19 11:42:04;;;;;;;16.10;6.35;;;;;;;;;;5031124;28;20037;-64
2021/12/19 11:44:34;;;;;;;17.65;7.70;;;;;;;;;;5031025;28;20036;-68
2021/12/19 11:47:05;;;;;;;16.27;7.05;;;;;;;;;;5031644;28;20024;-66
2021/12/19 11:49:31;;;;;;;16.88;7.05;;;;;;;;;;5047922;28;20092;-67
2021/12/19 11:52:30;;;;;;;16.27;6.32;;;;;;;;;;5052200;28;20021;-63
2021/12/19 11:55:15;;;;;;;16.30;7.03;;;;;;;;;;5013535;28;20036;-64
2021/12/19 11:57:42;;;;;;;15.70;6.40;;;;;;;;;;5051503;28;20025;-65
2021/12/19 12:00:27;;;;;;;16.45;6.60;;;;;;;;;;5053002;28;20028;-65
2021/12/19 12:03:12;;;;;;;16.58;6.90;;;;;;;;;;5050681;28;20073;-65
2021/12/19 12:05:38;;;;;;;18.80;8.15;;;;;;;;;;5052929;28;20033;-67
2021/12/19 12:08:05;;;;;;;14.68;6.50;;;;;;;;;;5052640;28;20021;-66
2021/12/19 12:10:49;;;;;;;14.48;5.78;;;;;;;;;;5052598;28;20032;-66
2021/12/19 12:13:26;;;;;;;14.93;5.90;;;;;;;;;;5052050;28;20025;-66
2021/12/19 12:15:57;;;;;;;15.82;5.97;;;;;;;;;;5052601;28;20029;-66
2021/12/19 12:18:34;;;;;;;17.52;7.18;;;;;;;;;;5052457;28;20021;-66
2021/12/19 12:21:24;;;;;;;16.05;6.18;;;;;;;;;;5052610;28;20096;-67
2021/12/19 12:23:54;;;;;;;17.50;5.75;;;;;;;;;;5050326;28;20509;-65
2021/12/19 12:26:35;;;;;;;17.90;7.30;;;;;;;;;;5052304;28;20533;-64
2021/12/19 12:29:01;;;;;;;17.95;5.97;;;;;;;;;;5052391;28;20025;-64
2021/12/19 12:31:27;;;;;;;16.48;6.10;;;;;;;;;;5051119;28;20013;-64
2021/12/19 12:33:54;;;;;;;15.45;6.15;;;;;;;;;;5051899;28;20416;-67
2021/12/19 12:36:21;;;;;;;18.58;6.65;;;;;;;;;;5051987;28;20025;-64
2021/12/19 12:38:50;;;;;;;17.38;6.80;;;;;;;;;;5052233;28;20052;-66
2021/12/19 12:44:20;;;;;;;15.05;6.40;;;;;;;;;;5017973;28;20060;-67
2021/12/19 12:46:46;;;;;;;18.02;6.93;;;;;;;;;;5050417;28;20029;-66
2021/12/19 12:49:12;;;;;;;15.60;6.22;;;;;;;;;;5051912;28;20021;-66
2021/12/19 12:51:42;;;;;;;16.33;6.38;;;;;;;;;;5051082;28;20127;-62
2021/12/19 12:54:10;;;;;;;18.08;5.90;;;;;;;;;;5052240;28;20393;-66
2021/12/19 12:56:42;;;;;;;16.23;6.30;;;;;;;;;;5050434;28;20025;-64
2021/12/19 12:59:09;;;;;;;16.48;6.43;;;;;;;;;;5051679;28;20105;-66
2021/12/19 13:01:37;;;;;;;15.68;6.00;;;;;;;;;;5050991;28;20025;-64
2021/12/19 13:04:09;;;;;;;16.85;6.57;;;;;;;;;;5051720;28;20534;-65
2021/12/19 13:06:41;;;;;;;15.85;5.63;;;;;;;;;;5052091;28;20385;-66
2021/12/19 13:09:09;;;;;;;18.15;7.28;;;;;;;;;;4688695;28;9999656;-65
2021/12/19 13:11:36;;;;;;;15.30;6.00;;;;;;;;;;5024944;28;20025;-62
2021/12/19 13:14:11;;;;;;;15.70;5.80;;;;;;;;;;5017526;28;20367;-66
2021/12/19 13:16:51;;;;;;;13.93;5.75;;;;;;;;;;5037157;28;20028;-64
2021/12/19 13:19:36;;;;;;;14.73;5.88;;;;;;;;;;5031195;28;20033;-65
2021/12/19 13:22:03;;;;;;;15.98;5.88;;;;;;;;;;5028232;28;20021;-66
2021/12/19 13:24:30;;;;;;;15.55;6.55;;;;;;;;;;5029316;28;20095;-66
2021/12/19 13:27:23;;;;;;;16.00;5.95;;;;;;;;;;5031780;28;20029;-66
2021/12/19 13:30:01;;;;;;;14.70;5.50;;;;;;;;;;5028276;28;20025;-66
2021/12/19 13:32:29;;;;;;;14.65;5.45;;;;;;;;;;5029555;28;20028;-67
2021/12/19 13:34:56;;;;;;;14.25;5.50;;;;;;;;;;5030182;28;20477;-65
2021/12/19 13:37:23;;;;;;;16.65;5.70;;;;;;;;;;5031746;28;20029;-66
2021/12/19 13:40:05;;;;;;;16.48;6.93;;;;;;;;;;5031548;28;20049;-66
2021/12/19 13:42:41;;;;;;;17.38;6.40;;;;;;;;;;5030449;28;20029;-66
2021/12/19 13:45:25;;;;;;;14.77;6.22;;;;;;;;;;5031426;28;20496;-66
2021/12/19 13:47:52;;;;;;;17.92;7.18;;;;;;;;;;5032649;28;20025;-68
2021/12/19 13:50:18;;;;;;;14.52;6.30;;;;;;;;;;5051383;28;20025;-65
2021/12/19 13:52:44;;;;;;;24.85;8.43;;;;;;;;;;5050585;28;20024;-67
2021/12/19 13:55:14;;;;;;;16.33;6.53;;;;;;;;;;5047759;28;20049;-66
2021/12/19 13:57:40;;;;;;;16.58;7.18;;;;;;;;;;5044680;28;20044;-65
2021/12/19 14:00:09;;;;;;;16.15;6.85;;;;;;;;;;5041701;28;20034;-64
2021/12/19 14:02:36;;;;;;;14.80;6.50;;;;;;;;;;5046543;28;20021;-68
2021/12/19 14:05:02;;;;;;;15.57;6.50;;;;;;;;;;5045061;28;20535;-67
2021/12/19 14:07:31;;;;;;;16.38;6.20;;;;;;;;;;5042666;28;20049;-65
2021/12/19 14:10:02;;;;;;;17.48;6.63;;;;;;;;;;5025929;28;20041;-68
2021/12/19 14:12:51;;;;;;;17.40;6.40;;;;;;;;;;5035935;28;20029;-66
2021/12/19 14:15:18;;;;;;;17.85;7.10;;;;;;;;;;5035052;28;20060;-68
2021/12/19 14:17:44;;;;;;;16.23;6.70;;;;;;;;;;5034834;28;20587;-67
2021/12/19 14:20:10;;;;;;;15.00;6.03;;;;;;;;;;5033587;28;20176;-69
2021/12/19 14:22:36;;;;;;;15.38;6.75;;;;;;;;;;5033838;28;20032;-67
2021/12/19 14:25:03;;;;;;;15.30;6.47;;;;;;;;;;5034522;28;20026;-69
2021/12/19 14:27:31;;;;;;;16.80;7.05;;;;;;;;;;5034737;28;20029;-70
2021/12/19 14:29:59;;;;;;;15.77;6.68;;;;;;;;;;5033619;28;20445;-67
2021/12/19 14:32:25;;;;;;;16.88;6.63;;;;;;;;;;5033635;28;20032;-65
2021/12/19 14:34:56;;;;;;;16.30;6.72;;;;;;;;;;5034472;28;20108;-68
2021/12/19 14:37:22;;;;;;;16.38;6.90;;;;;;;;;;5033336;28;20099;-67
2021/12/19 14:39:56;;;;;;;15.40;5.88;;;;;;;;;;5034568;28;20025;-66
2021/12/19 14:42:28;;;;;;;18.63;6.65;;;;;;;;;;5033443;28;20069;-66
2021/12/19 14:44:57;;;;;;;16.02;6.28;;;;;;;;;;5034415;28;20021;-69
2021/12/19 14:47:36;;;;;;;13.98;5.65;;;;;;;;;;5034642;28;20018;-68
2021/12/19 14:50:10;;;;;;;15.98;6.40;;;;;;;;;;5053489;28;20435;-66
2021/12/19 14:52:36;;;;;;;16.95;5.50;;;;;;;;;;5053576;28;20100;-68
2021/12/19 14:55:12;;;;;;;17.40;6.30;;;;;;;;;;5048811;28;20125;-68
2021/12/19 14:57:38;;;;;;;15.73;6.50;;;;;;;;;;5043762;28;20135;-67
2021/12/19 15:00:06;;;;;;;18.25;6.70;;;;;;;;;;5045808;28;20101;-66
2021/12/19 15:02:32;;;;;;;17.90;6.97;;;;;;;;;;5040736;28;20017;-67
2021/12/19 15:04:58;;;;;;;16.27;6.88;;;;;;;;;;5047889;28;20037;-65
2021/12/19 15:07:26;;;;;;;15.18;6.50;;;;;;;;;;5048298;28;20058;-68
2021/12/19 15:09:52;;;;;;;15.40;7.37;;;;;;;;;;4354877;28;10000226;-65
2021/12/19 15:12:18;;;;;;;15.63;6.13;;;;;;;;;;5050078;28;20029;-66
2021/12/19 15:14:44;;;;;;;15.93;6.57;;;;;;;;;;5041404;28;20025;-66
2021/12/19 15:17:10;;;;;;;18.83;7.07;;;;;;;;;;5041795;28;20829;-66
2021/12/19 15:19:36;;;;;;;17.52;7.25;;;;;;;;;;5040291;28;20032;-68
2021/12/19 15:22:02;;;;;;;16.55;7.70;;;;;;;;;;5037669;28;20091;-68
2021/12/19 15:24:28;;;;;;;16.33;7.00;;;;;;;;;;5041731;28;20102;-67
2021/12/19 15:26:54;;;;;;;19.88;9.35;;;;;;;;;;5023671;28;20060;-67
2021/12/19 15:29:20;;;;;;;16.92;7.47;;;;;;;;;;5040323;28;20022;-67
2021/12/19 15:31:46;;;;;;;15.60;6.85;;;;;;;;;;5047633;28;20026;-65
2021/12/19 15:34:13;;;;;;;16.50;7.38;;;;;;;;;;5027458;28;20021;-70
2021/12/19 15:36:39;;;;;;;16.73;7.43;;;;;;;;;;5039525;28;20032;-68
2021/12/19 15:39:08;;;;;;;15.95;6.70;;;;;;;;;;5040172;28;20035;-67
2021/12/19 15:41:34;;;;;;;20.40;7.57;;;;;;;;;;5039504;28;20080;-67
2021/12/19 15:44:00;;;;;;;16.08;6.93;;;;;;;;;;5073321;23;20428;-69
2021/12/19 15:46:26;;;;;;;17.20;5.85;;;;;;;;;;5068959;28;20541;-69
2021/12/19 15:48:53;;;;;;;17.90;6.20;;;;;;;;;;5052681;28;20116;-68